Time;durP1;ratioP1;P1;durP2;ratioP2;P2;SDS_P1;SDS_P2;PMS_P1;PMS_P2;Temp;Humidity;BMP_temperature;BMP_pressure;BME280_temperature;BME280_humidity;BME280_pressure;Samples;Min_cycle;Max_cycle;Signal;HPM_P1;HPM_P2
2021/01/05 00:02:13;;;;;;;;;;;;;;;;;;5059629;28;13260;-50
2021/01/05 00:04:39;;;;;;;;;;;;;;;;;;5062221;28;4297;-50
2021/01/05 00:07:05;;;;;;;;;;;;;;;;;;5053027;28;16854;-50
2021/01/05 00:09:30;;;;;;;;;;;;;;;;;;5052342;28;15444;-50
2021/01/05 00:11:57;;;;;;;;;;;;;;;;;;5055594;28;9772;-49
2021/01/05 00:14:22;;;;;;;;;;;;;;;;;;5057839;28;14307;-50
2021/01/05 00:16:47;;;;;;;;;;;;;;;;;;5060997;28;10067;-47
2021/01/05 00:19:12;;;;;;;;;;;;;;;;;;5065526;28;8532;-50
2021/01/05 00:21:38;;;;;;;;;;;;;;;;;;5062884;28;9731;-50
2021/01/05 00:24:04;;;;;;;;;;;;;;;;;;5054021;28;7232;-50
2021/01/05 00:26:30;;;;;;;;;;;;;;;;;;5058572;28;8838;-50
2021/01/05 00:28:55;;;;;;;;;;;;;;;;;;5070336;28;14362;-49
2021/01/05 00:31:20;;;;;;;;;;;;;;;;;;5061948;28;9630;-49
2021/01/05 00:33:45;;;;;;;;;;;;;;;;;;5067057;28;14932;-49
2021/01/05 00:36:11;;;;;;;;;;;;;;;;;;5058390;28;12410;-49
2021/01/05 00:38:36;;;;;;;;;;;;;;;;;;5052725;28;16047;-49
2021/01/05 00:41:01;;;;;;;;;;;;;;;;;;5047253;28;15543;-49
2021/01/05 00:43:26;;;;;;;;;;;;;;;;;;5064630;28;4158;-51
2021/01/05 00:45:52;;;;;;;;;;;;;;;;;;5055805;28;13671;-51
2021/01/05 00:48:17;;;;;;;;;;;;;;;;;;5071844;28;8268;-50
2021/01/05 00:50:42;;;;;;;;;;;;;;;;;;5057104;28;10334;-50
2021/01/05 00:53:07;;;;;;;;;;;;;;;;;;5058685;28;7956;-50
2021/01/05 00:55:33;;;;;;;;;;;;;;;;;;5063449;28;4138;-50
2021/01/05 00:57:58;;;;;;;;;;;;;;;;;;5054895;28;9706;-50
2021/01/05 01:00:25;;;;;;;;;;;;;;;;;;5062536;28;15430;-50
2021/01/05 01:02:51;;;;;;;;;;;;;;;;;;5064867;28;14842;-50
2021/01/05 01:05:17;;;;;;;;;;;;;;;;;;5068552;28;10610;-50
2021/01/05 01:07:42;;;;;;;;;;;;;;;;;;5069089;28;4255;-50
2021/01/05 01:10:08;;;;;;;;;;;;;;;;;;5064626;28;12074;-50
2021/01/05 01:12:33;;;;;;;;;;;;;;;;;;5062244;28;9497;-50
2021/01/05 01:14:58;;;;;;;;;;;;;;;;;;5061299;28;10233;-51
2021/01/05 01:17:24;;;;;;;;;;;;;;;;;;5060882;28;9452;-50
2021/01/05 01:19:50;;;;;;;;;;;;;;;;;;5054809;28;12986;-50
2021/01/05 01:22:16;;;;;;;;;;;;;;;;;;5052956;28;9612;-50
2021/01/05 01:24:41;;;;;;;;;;;;;;;;;;5060554;28;9255;-49
2021/01/05 01:27:06;;;;;;;;;;;;;;;;;;5064051;28;14047;-50
2021/01/05 01:29:31;;;;;;;;;;;;;;;;;;5054215;28;9229;-50
2021/01/05 01:31:57;;;;;;;;;;;;;;;;;;5062501;28;14164;-52
2021/01/05 01:34:23;;;;;;;;;;;;;;;;;;5065277;28;7768;-49
2021/01/05 01:36:57;;;;;;;;;;;;;;;;;;5061158;28;15842;-49
2021/01/05 01:39:23;;;;;;;;;;;;;;;;;;5061181;28;12747;-50
2021/01/05 01:41:49;;;;;;;;;;;;;;;;;;5056939;28;9338;-48
2021/01/05 01:44:17;;;;;;;;;;;;;;;;;;5063609;28;9424;-50
2021/01/05 01:46:42;;;;;;;;;;;;;;;;;;5062274;28;4240;-50
2021/01/05 01:49:07;;;;;;;;;;;;;;;;;;5056634;28;16556;-49
2021/01/05 01:51:32;;;;;;;;;;;;;;;;;;5054513;28;12460;-48
2021/01/05 01:54:03;;;;;;;;;;;;;;;;;;5065995;28;12517;-50
2021/01/05 01:56:29;;;;;;;;;;;;;;;;;;5063376;28;14959;-48
2021/01/05 01:59:17;;;;;;;;;;;;;;;;;;5062819;28;6751;-49
2021/01/05 02:01:54;;;;;;;;;;;;;;;;;;5057591;28;4208;-49
2021/01/05 02:04:23;;;;;;;;;;;;;;;;;;5061602;28;7947;-50
2021/01/05 02:06:48;;;;;;;;;;;;;;;;;;5062219;28;15992;-50
2021/01/05 02:09:26;;;;;;;;;;;;;;;;;;5065451;28;17033;-51
2021/01/05 02:12:23;;;;;;;;;;;;;;;;;;5067461;28;15513;-50
2021/01/05 02:14:48;;;;;;;;;;;;;;;;;;5003053;28;13764;-49
2021/01/05 02:17:19;;;;;;;;;;;;;;;;;;5003145;28;15064;-49
2021/01/05 02:19:47;;;;;;;;;;;;;;;;;;5008588;28;4183;-50
2021/01/05 02:22:27;;;;;;;;;;;;;;;;;;4986004;28;8251;-50
2021/01/05 02:25:01;;;;;;;;;;;;;;;;;;5004162;28;9817;-51
2021/01/05 02:27:27;;;;;;;;;;;;;;;;;;5003372;28;9552;-50
2021/01/05 02:29:57;;;;;;;;;;;;;;;;;;4994732;28;15911;-50
2021/01/05 02:32:36;;;;;;;;;;;;;;;;;;5004001;28;9189;-51
2021/01/05 02:35:04;;;;;;;;;;;;;;;;;;4992897;28;10568;-50
2021/01/05 02:37:35;;;;;;;;;;;;;;;;;;4999477;28;4226;-50
2021/01/05 02:40:18;;;;;;;;;;;;;;;;;;5005329;28;15744;-50
2021/01/05 02:43:02;;;;;;;;;;;;;;;;;;5005949;28;10417;-50
2021/01/05 02:45:30;;;;;;;;;;;;;;;;;;4997449;28;11453;-50
2021/01/05 02:48:01;;;;;;;;;;;;;;;;;;4995652;28;13324;-50
2021/01/05 02:50:41;;;;;;;;;;;;;;;;;;5002962;28;9378;-50
2021/01/05 02:53:15;;;;;;;;;;;;;;;;;;5019586;28;9096;-50
2021/01/05 02:56:01;;;;;;;;;;;;;;;;;;5029282;28;4246;-50
2021/01/05 02:58:29;;;;;;;;;;;;;;;;;;5022853;28;8418;-51
2021/01/05 03:00:57;;;;;;;;;;;;;;;;;;5022664;28;11658;-51
2021/01/05 03:03:31;;;;;;;;;;;;;;;;;;5027299;28;12137;-50
2021/01/05 03:06:15;;;;;;;;;;;;;;;;;;5012389;28;14939;-50
2021/01/05 03:08:45;;;;;;;;;;;;;;;;;;5016754;28;15674;-50
2021/01/05 03:11:15;;;;;;;;;;;;;;;;;;5026419;28;9037;-50
2021/01/05 03:13:55;;;;;;;;;;;;;;;;;;5021343;28;3955;-50
2021/01/05 03:16:29;;;;;;;;;;;;;;;;;;5030651;28;3934;-50
2021/01/05 03:19:15;;;;;;;;;;;;;;;;;;5024299;28;13634;-49
2021/01/05 03:21:43;;;;;;;;;;;;;;;;;;5020580;28;9423;-50
2021/01/05 03:24:10;;;;;;;;;;;;;;;;;;5028016;28;15266;-50
2021/01/05 03:26:38;;;;;;;;;;;;;;;;;;5019509;28;9467;-50
2021/01/05 03:29:04;;;;;;;;;;;;;;;;;;5016080;28;8197;-51
2021/01/05 03:31:50;;;;;;;;;;;;;;;;;;5024751;28;4220;-50
2021/01/05 03:34:15;;;;;;;;;;;;;;;;;;5027808;28;10740;-50
2021/01/05 03:36:40;;;;;;;;;;;;;;;;;;5027577;28;13775;-50
2021/01/05 03:39:06;;;;;;;;;;;;;;;;;;5017928;28;12942;-50
2021/01/05 03:41:32;;;;;;;;;;;;;;;;;;5022881;28;6835;-50
2021/01/05 03:43:57;;;;;;;;;;;;;;;;;;5026157;28;6047;-50
2021/01/05 03:46:24;;;;;;;;;;;;;;;;;;5023407;28;6654;-50
2021/01/05 03:48:52;;;;;;;;;;;;;;;;;;5020822;28;13812;-49
2021/01/05 03:51:17;;;;;;;;;;;;;;;;;;5024172;28;14204;-50
2021/01/05 03:53:43;;;;;;;;;;;;;;;;;;5004007;28;12290;-50
2021/01/05 03:56:08;;;;;;;;;;;;;;;;;;5020929;28;7850;-50
2021/01/05 03:58:34;;;;;;;;;;;;;;;;;;5018565;28;4002;-51
2021/01/05 04:00:59;;;;;;;;;;;;;;;;;;5019947;28;9900;-51
2021/01/05 04:03:24;;;;;;;;;;;;;;;;;;5026199;28;11625;-50
2021/01/05 04:05:49;;;;;;;;;;;;;;;;;;5029715;28;10604;-49
2021/01/05 04:08:15;;;;;;;;;;;;;;;;;;5016069;28;13525;-50
2021/01/05 04:10:40;;;;;;;;;;;;;;;;;;5041088;28;4159;-50
2021/01/05 04:13:05;;;;;;;;;;;;;;;;;;5012375;28;10426;-50
2021/01/05 04:15:30;;;;;;;;;;;;;;;;;;5028263;28;11379;-49
2021/01/05 04:17:56;;;;;;;;;;;;;;;;;;5031297;28;8035;-51
2021/01/05 04:20:23;;;;;;;;;;;;;;;;;;5037857;28;6847;-50
2021/01/05 04:22:48;;;;;;;;;;;;;;;;;;5038304;28;1780;-49
2021/01/05 04:25:15;;;;;;;;;;;;;;;;;;5022027;28;16355;-50
2021/01/05 04:27:41;;;;;;;;;;;;;;;;;;5024208;28;15704;-49
2021/01/05 04:30:07;;;;;;;;;;;;;;;;;;5028237;28;14279;-50
2021/01/05 04:32:32;;;;;;;;;;;;;;;;;;5020981;28;13265;-51
2021/01/05 04:34:58;;;;;;;;;;;;;;;;;;5028229;28;7394;-50
2021/01/05 04:37:23;;;;;;;;;;;;;;;;;;5024906;28;7598;-49
2021/01/05 04:39:48;;;;;;;;;;;;;;;;;;5028933;28;13381;-50
2021/01/05 04:42:35;;;;;;;;;;;;;;;;;;5025945;28;15913;-51
2021/01/05 04:45:00;;;;;;;;;;;;;;;;;;5033484;28;8404;-50
2021/01/05 04:47:26;;;;;;;;;;;;;;;;;;5018626;28;15305;-50
2021/01/05 04:49:51;;;;;;;;;;;;;;;;;;5028574;28;11288;-49
2021/01/05 04:52:20;;;;;;;;;;;;;;;;;;5024283;28;6676;-50
2021/01/05 04:54:48;;;;;;;;;;;;;;;;;;5031696;28;9550;-49
2021/01/05 04:57:23;;;;;;;;;;;;;;;;;;5032329;28;10941;-50
2021/01/05 05:00:07;;;;;;;;;;;;;;;;;;5025726;28;9848;-49
2021/01/05 05:02:51;;;;;;;;;;;;;;;;;;5009337;28;7887;-49
2021/01/05 05:05:25;;;;;;;;;;;;;;;;;;5018369;28;15779;-50
2021/01/05 05:08:08;;;;;;;;;;;;;;;;;;5030283;28;7174;-48
2021/01/05 05:10:38;;;;;;;;;;;;;;;;;;5033134;28;4140;-50
2021/01/05 05:13:03;;;;;;;;;;;;;;;;;;5030111;28;7883;-50
2021/01/05 05:15:28;;;;;;;;;;;;;;;;;;5021863;28;13090;-50
2021/01/05 05:18:02;;;;;;;;;;;;;;;;;;5019098;28;9075;-49
2021/01/05 05:20:46;;;;;;;;;;;;;;;;;;5026459;28;8221;-51
2021/01/05 05:23:33;;;;;;;;;;;;;;;;;;5028623;28;12743;-50
2021/01/05 05:26:05;;;;;;;;;;;;;;;;;;5028969;28;13034;-50
2021/01/05 05:28:34;;;;;;;;;;;;;;;;;;5028599;28;4109;-50
2021/01/05 05:31:02;;;;;;;;;;;;;;;;;;5031940;28;9484;-50
2021/01/05 05:33:29;;;;;;;;;;;;;;;;;;5029706;28;14031;-49
2021/01/05 05:36:13;;;;;;;;;;;;;;;;;;5038699;28;9448;-50
2021/01/05 05:38:52;;;;;;;;;;;;;;;;;;5012587;28;13934;-50
2021/01/05 05:41:32;;;;;;;;;;;;;;;;;;5028417;28;14562;-48
2021/01/05 05:44:17;;;;;;;;;;;;;;;;;;5019292;28;11354;-50
2021/01/05 05:46:44;;;;;;;;;;;;;;;;;;5025350;28;4177;-50
2021/01/05 05:49:22;;;;;;;;;;;;;;;;;;5021067;28;14889;-50
2021/01/05 05:51:50;;;;;;;;;;;;;;;;;;5023451;28;9263;-50
2021/01/05 05:54:21;;;;;;;;;;;;;;;;;;5017238;28;15203;-51
2021/01/05 05:56:52;;;;;;;;;;;;;;;;;;5021783;28;14250;-50
2021/01/05 05:59:20;;;;;;;;;;;;;;;;;;5022808;28;14179;-49
2021/01/05 06:01:46;;;;;;;;;;;;;;;;;;5030405;28;4151;-49
2021/01/05 06:04:12;;;;;;;;;;;;;;;;;;5032429;28;10864;-50
2021/01/05 06:06:39;;;;;;;;;;;;;;;;;;5021578;28;13026;-50
2021/01/05 06:09:04;;;;;;;;;;;;;;;;;;5023166;28;10119;-51
2021/01/05 06:11:33;;;;;;;;;;;;;;;;;;5023737;28;13650;-49
2021/01/05 06:13:59;;;;;;;;;;;;;;;;;;5028353;28;7633;-49
2021/01/05 06:16:24;;;;;;;;;;;;;;;;;;5019423;28;7093;-51
2021/01/05 06:18:49;;;;;;;;;;;;;;;;;;5021304;28;10840;-50
2021/01/05 06:21:15;;;;;;;;;;;;;;;;;;5025516;28;13083;-50
2021/01/05 06:23:40;;;;;;;;;;;;;;;;;;5028519;28;9357;-50
2021/01/05 06:26:06;;;;;;;;;;;;;;;;;;5028411;28;9685;-50
2021/01/05 06:28:31;;;;;;;;;;;;;;;;;;5024712;28;3997;-50
2021/01/05 06:30:56;;;;;;;;;;;;;;;;;;5025931;28;10570;-50
2021/01/05 06:33:22;;;;;;;;;;;;;;;;;;5028329;28;15764;-50
2021/01/05 06:35:47;;;;;;;;;;;;;;;;;;5028866;28;9103;-50
2021/01/05 06:38:12;;;;;;;;;;;;;;;;;;5039069;28;14998;-50
2021/01/05 06:40:38;;;;;;;;;;;;;;;;;;5032325;28;3865;-50
2021/01/05 06:43:05;;;;;;;;;;;;;;;;;;5023921;28;9244;-50
2021/01/05 06:45:33;;;;;;;;;;;;;;;;;;5024179;28;14826;-50
2021/01/05 06:47:59;;;;;;;;;;;;;;;;;;5018221;28;15306;-50
2021/01/05 06:50:25;;;;;;;;;;;;;;;;;;5023601;28;14920;-50
2021/01/05 06:52:51;;;;;;;;;;;;;;;;;;5026112;28;4118;-51
2021/01/05 06:55:16;;;;;;;;;;;;;;;;;;5024563;28;12710;-50
2021/01/05 06:57:41;;;;;;;;;;;;;;;;;;5020598;28;6811;-49
2021/01/05 07:00:08;;;;;;;;;;;;;;;;;;5025554;28;14394;-50
2021/01/05 07:02:33;;;;;;;;;;;;;;;;;;5025229;28;14526;-50
2021/01/05 07:04:59;;;;;;;;;;;;;;;;;;5037692;28;15470;-50
2021/01/05 07:07:24;;;;;;;;;;;;;;;;;;5022064;28;7834;-49
2021/01/05 07:09:49;;;;;;;;;;;;;;;;;;5022883;28;13614;-50
2021/01/05 07:12:15;;;;;;;;;;;;;;;;;;5027609;28;7467;-51
2021/01/05 07:14:40;;;;;;;;;;;;;;;;;;5028385;28;13828;-49
2021/01/05 07:17:05;;;;;;;;;;;;;;;;;;5012590;28;15536;-51
2021/01/05 07:19:30;;;;;;;;;;;;;;;;;;5027985;28;8414;-50
2021/01/05 07:21:56;;;;;;;;;;;;;;;;;;5023450;28;16115;-50
2021/01/05 07:24:21;;;;;;;;;;;;;;;;;;5021893;28;8869;-50
2021/01/05 07:26:47;;;;;;;;;;;;;;;;;;5025651;28;7805;-50
2021/01/05 07:29:13;;;;;;;;;;;;;;;;;;5023696;28;11202;-50
2021/01/05 07:31:39;;;;;;;;;;;;;;;;;;5026303;28;3970;-50
2021/01/05 07:34:04;;;;;;;;;;;;;;;;;;5023768;28;12094;-50
2021/01/05 07:36:31;;;;;;;;;;;;;;;;;;5022812;28;9343;-50
2021/01/05 07:38:57;;;;;;;;;;;;;;;;;;5026394;28;9301;-50
2021/01/05 07:41:23;;;;;;;;;;;;;;;;;;5026203;28;7542;-51
2021/01/05 07:43:48;;;;;;;;;;;;;;;;;;5031247;28;4300;-50
2021/01/05 07:46:14;;;;;;;;;;;;;;;;;;5021229;28;10006;-49
2021/01/05 07:48:41;;;;;;;;;;;;;;;;;;5023109;28;14196;-50
2021/01/05 07:51:06;;;;;;;;;;;;;;;;;;5024668;28;8172;-51
2021/01/05 07:53:32;;;;;;;;;;;;;;;;;;5020138;28;10886;-50
2021/01/05 07:55:57;;;;;;;;;;;;;;;;;;5023523;28;8344;-50
2021/01/05 07:58:22;;;;;;;;;;;;;;;;;;5021663;28;9308;-50
2021/01/05 08:00:47;;;;;;;;;;;;;;;;;;5017842;28;14756;-50
2021/01/05 08:03:13;;;;;;;;;;;;;;;;;;5025142;28;16779;-50
2021/01/05 08:05:38;;;;;;;;;;;;;;;;;;5023938;28;9639;-51
2021/01/05 08:08:03;;;;;;;;;;;;;;;;;;5010300;28;15520;-50
2021/01/05 08:10:29;;;;;;;;;;;;;;;;;;5026718;28;7901;-50
2021/01/05 08:12:54;;;;;;;;;;;;;;;;;;5020292;28;13213;-50
2021/01/05 08:15:21;;;;;;;;;;;;;;;;;;5028299;28;10920;-50
2021/01/05 08:17:47;;;;;;;;;;;;;;;;;;5015411;28;11151;-50
2021/01/05 08:20:15;;;;;;;;;;;;;;;;;;5021391;28;14356;-50
2021/01/05 08:22:41;;;;;;;;;;;;;;;;;;5018364;28;1714;-49
2021/01/05 08:25:06;;;;;;;;;;;;;;;;;;5021272;28;12881;-50
2021/01/05 08:27:32;;;;;;;;;;;;;;;;;;5016822;28;16557;-49
2021/01/05 08:29:57;;;;;;;;;;;;;;;;;;5021262;28;4168;-50
2021/01/05 08:32:22;;;;;;;;;;;;;;;;;;5020179;28;8260;-50
2021/01/05 08:34:48;;;;;;;;;;;;;;;;;;5032411;28;4149;-48
2021/01/05 08:37:13;;;;;;;;;;;;;;;;;;5022489;28;14296;-50
2021/01/05 08:39:38;;;;;;;;;;;;;;;;;;5026223;28;11020;-49
2021/01/05 08:42:04;;;;;;;;;;;;;;;;;;5014268;28;10768;-50
2021/01/05 08:44:29;;;;;;;;;;;;;;;;;;5018875;28;9383;-50
2021/01/05 08:47:01;;;;;;;;;;;;;;;;;;5031631;28;5167;-50
2021/01/05 08:49:28;;;;;;;;;;;;;;;;;;5024987;28;6672;-49
2021/01/05 08:51:53;;;;;;;;;;;;;;;;;;5022797;28;11787;-49
2021/01/05 08:54:19;;;;;;;;;;;;;;;;;;5020803;28;7380;-50
2021/01/05 08:56:44;;;;;;;;;;;;;;;;;;5024177;28;13115;-50
2021/01/05 08:59:09;;;;;;;;;;;;;;;;;;5016557;28;12992;-51
2021/01/05 09:01:35;;;;;;;;;;;;;;;;;;5023740;28;4199;-50
2021/01/05 09:04:00;;;;;;;;;;;;;;;;;;5024369;28;8295;-49
2021/01/05 09:06:25;;;;;;;;;;;;;;;;;;5017085;28;11278;-49
2021/01/05 09:08:51;;;;;;;;;;;;;;;;;;5011979;28;9512;-50
2021/01/05 09:11:18;;;;;;;;;;;;;;;;;;5005207;28;15204;-49
2021/01/05 09:13:43;;;;;;;;;;;;;;;;;;5030677;28;4205;-51
2021/01/05 09:16:09;;;;;;;;;;;;;;;;;;5025681;28;15236;-50
2021/01/05 09:18:34;;;;;;;;;;;;;;;;;;5028884;28;14418;-50
2021/01/05 09:21:03;;;;;;;;;;;;;;;;;;5032983;28;16081;-50
2021/01/05 09:23:29;;;;;;;;;;;;;;;;;;5027884;28;12348;-50
2021/01/05 09:25:55;;;;;;;;;;;;;;;;;;5021721;28;12958;-49
2021/01/05 09:28:21;;;;;;;;;;;;;;;;;;5008413;28;9330;-50
2021/01/05 09:30:46;;;;;;;;;;;;;;;;;;5019762;28;13437;-50
2021/01/05 09:33:12;;;;;;;;;;;;;;;;;;5027327;28;6727;-49
2021/01/05 09:35:37;;;;;;;;;;;;;;;;;;5026268;28;15598;-51
2021/01/05 09:38:08;;;;;;;;;;;;;;;;;;5022980;28;10584;-50
2021/01/05 09:40:33;;;;;;;;;;;;;;;;;;5018375;28;7123;-49
2021/01/05 09:42:58;;;;;;;;;;;;;;;;;;5018435;28;9426;-50
2021/01/05 09:45:23;;;;;;;;;;;;;;;;;;5022599;28;15424;-51
2021/01/05 09:47:49;;;;;;;;;;;;;;;;;;5026078;28;14814;-50
2021/01/05 09:50:14;;;;;;;;;;;;;;;;;;5021840;28;16149;-50
2021/01/05 09:52:39;;;;;;;;;;;;;;;;;;5030594;28;3950;-50
2021/01/05 09:55:06;;;;;;;;;;;;;;;;;;5016177;28;11831;-50
2021/01/05 09:57:32;;;;;;;;;;;;;;;;;;5022499;28;14671;-49
2021/01/05 09:59:57;;;;;;;;;;;;;;;;;;5026358;28;9174;-50
2021/01/05 10:02:22;;;;;;;;;;;;;;;;;;5025683;28;11240;-51
2021/01/05 10:04:48;;;;;;;;;;;;;;;;;;5007651;28;4160;-50
2021/01/05 10:07:13;;;;;;;;;;;;;;;;;;5021085;28;9931;-50
2021/01/05 10:09:39;;;;;;;;;;;;;;;;;;5022690;28;6777;-49
2021/01/05 10:12:05;;;;;;;;;;;;;;;;;;5026460;28;9340;-51
2021/01/05 10:14:30;;;;;;;;;;;;;;;;;;5026894;28;13711;-49
2021/01/05 10:16:56;;;;;;;;;;;;;;;;;;5032046;28;13663;-48
2021/01/05 10:19:22;;;;;;;;;;;;;;;;;;5008055;28;8300;-50
2021/01/05 10:21:47;;;;;;;;;;;;;;;;;;5027331;28;8643;-50
2021/01/05 10:24:13;;;;;;;;;;;;;;;;;;5027614;28;11230;-50
2021/01/05 10:26:38;;;;;;;;;;;;;;;;;;5021303;28;15543;-49
2021/01/05 10:29:04;;;;;;;;;;;;;;;;;;5023208;28;9018;-50
2021/01/05 10:31:37;;;;;;;;;;;;;;;;;;5023920;28;3942;-50
2021/01/05 10:34:03;;;;;;;;;;;;;;;;;;5023362;28;7826;-50
2021/01/05 10:36:28;;;;;;;;;;;;;;;;;;5020617;28;14938;-49
2021/01/05 10:38:53;;;;;;;;;;;;;;;;;;5023361;28;12814;-50
2021/01/05 10:41:18;;;;;;;;;;;;;;;;;;5021879;28;9183;-48
2021/01/05 10:43:44;;;;;;;;;;;;;;;;;;5026031;28;4124;-49
2021/01/05 10:46:10;;;;;;;;;;;;;;;;;;5024810;28;6852;-50
2021/01/05 10:48:35;;;;;;;;;;;;;;;;;;5019857;28;11588;-50
2021/01/05 10:51:02;;;;;;;;;;;;;;;;;;5026393;28;11047;-50
2021/01/05 10:53:28;;;;;;;;;;;;;;;;;;5005488;28;15237;-49
2021/01/05 10:55:54;;;;;;;;;;;;;;;;;;5024885;28;4345;-50
2021/01/05 10:58:19;;;;;;;;;;;;;;;;;;5021783;28;9482;-50
2021/01/05 11:00:44;;;;;;;;;;;;;;;;;;5017910;28;14404;-51
2021/01/05 11:03:10;;;;;;;;;;;;;;;;;;5021570;28;10157;-50
2021/01/05 11:05:35;;;;;;;;;;;;;;;;;;5013661;28;12260;-50
2021/01/05 11:08:00;;;;;;;;;;;;;;;;;;5015520;28;6968;-50
2021/01/05 11:10:26;;;;;;;;;;;;;;;;;;5020806;28;6890;-50
2021/01/05 11:12:51;;;;;;;;;;;;;;;;;;5021092;28;9391;-50
2021/01/05 11:15:17;;;;;;;;;;;;;;;;;;5016244;28;9506;-49
2021/01/05 11:17:44;;;;;;;;;;;;;;;;;;5014166;28;6832;-50
2021/01/05 11:20:11;;;;;;;;;;;;;;;;;;5018357;28;14482;-50
2021/01/05 11:22:36;;;;;;;;;;;;;;;;;;5030930;28;4231;-50
2021/01/05 11:25:01;;;;;;;;;;;;;;;;;;5019742;28;13614;-49
2021/01/05 11:27:27;;;;;;;;;;;;;;;;;;5012822;28;6870;-50
2021/01/05 11:29:52;;;;;;;;;;;;;;;;;;5023171;28;8302;-50
2021/01/05 11:32:17;;;;;;;;;;;;;;;;;;5020426;28;7759;-50
2021/01/05 11:34:43;;;;;;;;;;;;;;;;;;5029767;28;3937;-49
2021/01/05 11:37:14;;;;;;;;;;;;;;;;;;5027366;28;9424;-50
2021/01/05 11:39:42;;;;;;;;;;;;;;;;;;5009043;28;14045;-50
2021/01/05 11:42:08;;;;;;;;;;;;;;;;;;5028870;28;12605;-50
2021/01/05 11:44:33;;;;;;;;;;;;;;;;;;5003377;28;14213;-51
2021/01/05 11:46:58;;;;;;;;;;;;;;;;;;5015916;28;4336;-50
2021/01/05 11:49:24;;;;;;;;;;;;;;;;;;5018904;28;6834;-50
2021/01/05 11:51:50;;;;;;;;;;;;;;;;;;5020750;28;8008;-50
2021/01/05 11:54:16;;;;;;;;;;;;;;;;;;5022820;28;9385;-50
2021/01/05 11:56:41;;;;;;;;;;;;;;;;;;5024079;28;10305;-50
2021/01/05 11:59:06;;;;;;;;;;;;;;;;;;5012122;28;9196;-50
2021/01/05 12:01:36;;;;;;;;;;;;;;;;;;5003935;28;10700;-50
2021/01/05 12:04:02;;;;;;;;;;;;;;;;;;5023220;28;11997;-50
2021/01/05 12:06:27;;;;;;;;;;;;;;;;;;5014585;28;11056;-50
2021/01/05 12:08:53;;;;;;;;;;;;;;;;;;5010893;28;7821;-50
2021/01/05 12:11:18;;;;;;;;;;;;;;;;;;5022018;28;13390;-50
2021/01/05 12:13:43;;;;;;;;;;;;;;;;;;5022424;28;3937;-49
2021/01/05 12:16:08;;;;;;;;;;;;;;;;;;5013053;28;9467;-50
2021/01/05 12:18:34;;;;;;;;;;;;;;;;;;5020446;28;11329;-50
2021/01/05 12:20:59;;;;;;;;;;;;;;;;;;5016977;28;10173;-49
2021/01/05 12:23:24;;;;;;;;;;;;;;;;;;5025044;28;9565;-50
2021/01/05 12:25:49;;;;;;;;;;;;;;;;;;5027534;28;4189;-50
2021/01/05 12:28:15;;;;;;;;;;;;;;;;;;5013902;28;14959;-50
2021/01/05 12:30:40;;;;;;;;;;;;;;;;;;5025240;28;11083;-50
2021/01/05 12:33:05;;;;;;;;;;;;;;;;;;5023030;28;11689;-50
2021/01/05 12:35:30;;;;;;;;;;;;;;;;;;5018463;28;9386;-50
2021/01/05 12:37:56;;;;;;;;;;;;;;;;;;5025778;28;4146;-50
2021/01/05 12:40:21;;;;;;;;;;;;;;;;;;5015288;28;16786;-50
2021/01/05 12:42:47;;;;;;;;;;;;;;;;;;5026454;28;15161;-50
2021/01/05 12:45:12;;;;;;;;;;;;;;;;;;5022273;28;6790;-50
2021/01/05 12:47:37;;;;;;;;;;;;;;;;;;5027409;28;7370;-50
2021/01/05 12:50:03;;;;;;;;;;;;;;;;;;5026456;28;17440;-50
2021/01/05 12:52:28;;;;;;;;;;;;;;;;;;5019276;28;7339;-50
2021/01/05 12:54:53;;;;;;;;;;;;;;;;;;5027315;28;10295;-50
2021/01/05 12:57:19;;;;;;;;;;;;;;;;;;5029298;28;10985;-50
2021/01/05 12:59:48;;;;;;;;;;;;;;;;;;5033476;28;9350;-50
2021/01/05 13:02:15;;;;;;;;;;;;;;;;;;5021327;28;9275;-49
2021/01/05 13:04:41;;;;;;;;;;;;;;;;;;5016889;28;3935;-49
2021/01/05 13:07:06;;;;;;;;;;;;;;;;;;5017961;28;8059;-50
2021/01/05 13:09:31;;;;;;;;;;;;;;;;;;5011992;28;14830;-50
2021/01/05 13:11:57;;;;;;;;;;;;;;;;;;5023598;28;8625;-50
2021/01/05 13:14:23;;;;;;;;;;;;;;;;;;5026958;28;13278;-50
2021/01/05 13:16:48;;;;;;;;;;;;;;;;;;5031827;28;4231;-50
2021/01/05 13:19:15;;;;;;;;;;;;;;;;;;5023295;28;16144;-49
2021/01/05 13:21:42;;;;;;;;;;;;;;;;;;5020755;28;15663;-49
2021/01/05 13:24:09;;;;;;;;;;;;;;;;;;5028451;28;13782;-50
2021/01/05 13:26:35;;;;;;;;;;;;;;;;;;5028014;28;9951;-50
2021/01/05 13:29:01;;;;;;;;;;;;;;;;;;5027770;28;9596;-50
2021/01/05 13:31:36;;;;;;;;;;;;;;;;;;5027841;28;9664;-49
2021/01/05 13:34:01;;;;;;;;;;;;;;;;;;5023314;28;18081;-51
2021/01/05 13:36:26;;;;;;;;;;;;;;;;;;5028235;28;7689;-49
2021/01/05 13:38:52;;;;;;;;;;;;;;;;;;5021505;28;10585;-50
2021/01/05 13:41:31;;;;;;;;;;;;;;;;;;5019712;28;15664;-49
2021/01/05 13:43:56;;;;;;;;;;;;;;;;;;5024580;28;4196;-50
2021/01/05 13:46:23;;;;;;;;;;;;;;;;;;5016451;28;13355;-50
2021/01/05 13:48:48;;;;;;;;;;;;;;;;;;5022571;28;9302;-51
2021/01/05 13:51:13;;;;;;;;;;;;;;;;;;5026453;28;9490;-49
2021/01/05 13:53:39;;;;;;;;;;;;;;;;;;5029929;28;14931;-50
2021/01/05 13:56:11;;;;;;;;;;;;;;;;;;5026547;28;15786;-50
2021/01/05 13:58:36;;;;;;;;;;;;;;;;;;5023977;28;6907;-50
2021/01/05 14:01:01;;;;;;;;;;;;;;;;;;5030497;28;10399;-50
2021/01/05 14:03:26;;;;;;;;;;;;;;;;;;5033400;28;13344;-50
2021/01/05 14:05:52;;;;;;;;;;;;;;;;;;5033141;28;9306;-51
2021/01/05 14:08:17;;;;;;;;;;;;;;;;;;5033252;28;11660;-49
2021/01/05 14:10:42;;;;;;;;;;;;;;;;;;5025297;28;4246;-51
2021/01/05 14:13:07;;;;;;;;;;;;;;;;;;5027796;28;6617;-51
2021/01/05 14:15:33;;;;;;;;;;;;;;;;;;5023437;28;9660;-50
2021/01/05 14:17:58;;;;;;;;;;;;;;;;;;5016737;28;10086;-51
2021/01/05 14:20:24;;;;;;;;;;;;;;;;;;5020821;28;14488;-50
2021/01/05 14:22:50;;;;;;;;;;;;;;;;;;5033450;28;4085;-50
2021/01/05 14:25:15;;;;;;;;;;;;;;;;;;5029276;28;9841;-50
2021/01/05 14:27:40;;;;;;;;;;;;;;;;;;5024390;28;17081;-49
2021/01/05 14:30:06;;;;;;;;;;;;;;;;;;5017980;28;14262;-50
2021/01/05 14:32:31;;;;;;;;;;;;;;;;;;5022689;28;9317;-49
2021/01/05 14:34:56;;;;;;;;;;;;;;;;;;5028860;28;3902;-51
2021/01/05 14:37:21;;;;;;;;;;;;;;;;;;5020538;28;15448;-50
2021/01/05 14:39:47;;;;;;;;;;;;;;;;;;5021901;28;15988;-50
2021/01/05 14:42:12;;;;;;;;;;;;;;;;;;5022916;28;11530;-50
2021/01/05 14:44:41;;;;;;;;;;;;;;;;;;4997327;28;10863;-50
2021/01/05 14:47:12;;;;;;;;;;;;;;;;;;5001580;28;11741;-47
2021/01/05 14:49:38;;;;;;;;;;;;;;;;;;5005209;28;4126;-50
2021/01/05 14:52:05;;;;;;;;;;;;;;;;;;5004607;28;11969;-50
2021/01/05 14:54:30;;;;;;;;;;;;;;;;;;5021292;28;15652;-50
2021/01/05 14:56:55;;;;;;;;;;;;;;;;;;5007372;28;8177;-50
2021/01/05 14:59:21;;;;;;;;;;;;;;;;;;4999804;28;7439;-50
2021/01/05 15:01:46;;;;;;;;;;;;;;;;;;5012001;28;4178;-51
2021/01/05 15:04:12;;;;;;;;;;;;;;;;;;4998983;28;13281;-50
2021/01/05 15:06:37;;;;;;;;;;;;;;;;;;5008400;28;9496;-50
2021/01/05 15:09:04;;;;;;;;;;;;;;;;;;5004739;28;7702;-50
2021/01/05 15:11:37;;;;;;;;;;;;;;;;;;5003862;28;9531;-50
2021/01/05 15:14:04;;;;;;;;;;;;;;;;;;5003206;28;12274;-50
2021/01/05 15:16:29;;;;;;;;;;;;;;;;;;5007333;28;7528;-50
2021/01/05 15:18:54;;;;;;;;;;;;;;;;;;4999171;28;15334;-50
2021/01/05 15:21:21;;;;;;;;;;;;;;;;;;5002611;28;14679;-50
2021/01/05 15:23:47;;;;;;;;;;;;;;;;;;5002707;28;9758;-50
2021/01/05 15:26:12;;;;;;;;;;;;;;;;;;4998898;28;8520;-50
2021/01/05 15:28:37;;;;;;;;;;;;;;;;;;5006690;28;7529;-50
2021/01/05 15:31:02;;;;;;;;;;;;;;;;;;5004591;28;9506;-50
2021/01/05 15:33:28;;;;;;;;;;;;;;;;;;4996884;28;15640;-50
2021/01/05 15:35:53;;;;;;;;;;;;;;;;;;5004860;28;8258;-49
2021/01/05 15:38:18;;;;;;;;;;;;;;;;;;5017045;28;9629;-50
2021/01/05 15:40:44;;;;;;;;;;;;;;;;;;5010647;28;4323;-50
2021/01/05 15:43:09;;;;;;;;;;;;;;;;;;5002645;28;8272;-51
2021/01/05 15:45:38;;;;;;;;;;;;;;;;;;5018037;28;14006;-50
2021/01/05 15:48:03;;;;;;;;;;;;;;;;;;5020934;28;6946;-50
2021/01/05 15:50:29;;;;;;;;;;;;;;;;;;5019403;28;9530;-49
2021/01/05 15:52:54;;;;;;;;;;;;;;;;;;5028798;28;4199;-50
2021/01/05 15:55:21;;;;;;;;;;;;;;;;;;5014526;28;9173;-50
2021/01/05 15:57:46;;;;;;;;;;;;;;;;;;5023680;28;7208;-49
2021/01/05 16:00:14;;;;;;;;;;;;;;;;;;5027176;28;12295;-50
2021/01/05 16:02:39;;;;;;;;;;;;;;;;;;5019527;28;9500;-50
2021/01/05 16:05:05;;;;;;;;;;;;;;;;;;5027784;28;10271;-50
2021/01/05 16:07:30;;;;;;;;;;;;;;;;;;5028026;28;6858;-49
2021/01/05 16:09:55;;;;;;;;;;;;;;;;;;5024276;28;9314;-50
2021/01/05 16:12:21;;;;;;;;;;;;;;;;;;5022070;28;9507;-50
2021/01/05 16:14:46;;;;;;;;;;;;;;;;;;5030144;28;6631;-50
2021/01/05 16:17:11;;;;;;;;;;;;;;;;;;5026656;28;14412;-50
2021/01/05 16:19:37;;;;;;;;;;;;;;;;;;5007505;28;7024;-50
2021/01/05 16:22:02;;;;;;;;;;;;;;;;;;5022235;28;14657;-50
2021/01/05 16:24:28;;;;;;;;;;;;;;;;;;5023221;28;9510;-50
2021/01/05 16:26:57;;;;;;;;;;;;;;;;;;5032466;28;11852;-51
2021/01/05 16:29:22;;;;;;;;;;;;;;;;;;5006921;28;9786;-50
2021/01/05 16:31:55;;;;;;;;;;;;;;;;;;5029153;28;4160;-50
2021/01/05 16:34:21;;;;;;;;;;;;;;;;;;5016113;28;10959;-50
2021/01/05 16:36:47;;;;;;;;;;;;;;;;;;5013438;28;14067;-50
2021/01/05 16:39:12;;;;;;;;;;;;;;;;;;5017139;28;7038;-50
2021/01/05 16:41:38;;;;;;;;;;;;;;;;;;5025203;28;10893;-50
2021/01/05 16:44:05;;;;;;;;;;;;;;;;;;5027275;28;11081;-50
2021/01/05 16:46:35;;;;;;;;;;;;;;;;;;5027173;28;6983;-49
2021/01/05 16:49:01;;;;;;;;;;;;;;;;;;5029141;28;8026;-50
2021/01/05 16:51:27;;;;;;;;;;;;;;;;;;5022274;28;9804;-50
2021/01/05 16:53:52;;;;;;;;;;;;;;;;;;5022022;28;11033;-50